Valley Hill, Mississippi
Current Conditions -  °F | °C
As of 2:53 AM on Monday 24 Nov 2014 (Local Time) from KGWO Reporting Station
Clear Clear  
Wind Chill: 61°   Ceiling: Unl
Heat Index: 61°   Visibility: 10mi
Dew Point: 54°   Wind: 12mph
Humidity: 78%   Direction: 220°SW
Pressure: 29.62"   Gusts: 20mph
Location:  33.5322°N, 89.9872°W
Report Text: KGWO 240853Z AUTO 22010G17KT 10SM CLR 16/12 A2962 RMK AO2 SLP029 T01610122 53022 TSNO
Loading
Personal Weather Stations






























Interactive Weather Map New forecast layout! Learn more

10-Day Weather Forecast

Advertisements
Track Severe Weather on mobile